Arctic Bay, Canada
Current Conditions -  °F | °C
As of 3:00 PM on Sunday 21 Dec 2014 (Local Time) from CYIO Reporting Station
Light Snow Light Snow  
Wind Chill: -32°   Ceiling: 4900
Heat Index: -15°   Visibility: 7mi
Dew Point: -20°   Wind: 8mph
Humidity: 77%   Direction: 210°SSW
Pressure: 29.98"   Gusts: NA
Location:  73.03°N, 85.17°W
Report Text: CYIO 212100Z AUTO 21007KT 7SM -SN OVC049 M26/M29 A2998 RMK SLP162
Loading
Personal Weather Stations






























Interactive Weather Map New forecast layout! Learn more

10-Day Weather Forecast

Advertisements
Track Severe Weather on mobile